createdAt,value
2017-09-03T00:04:41.266Z,4.27
2017-09-03T00:09:47.501Z,5.37
2017-09-03T00:14:50.902Z,5.30
2017-09-03T00:19:54.413Z,5.27
2017-09-03T00:24:58.723Z,5.47
2017-09-03T00:30:02.998Z,4.90
2017-09-03T00:35:06.540Z,5.80
2017-09-03T00:40:10.015Z,5.70
2017-09-03T00:45:15.128Z,6.20
2017-09-03T00:50:18.339Z,6.70
2017-09-03T00:55:21.322Z,5.80
2017-09-03T01:00:25.731Z,5.50
2017-09-03T01:05:28.351Z,5.93
2017-09-03T01:10:31.759Z,5.80
2017-09-03T01:15:36.241Z,6.10
2017-09-03T01:25:37.345Z,6.70
2017-09-03T01:30:39.970Z,6.60
2017-09-03T01:35:42.959Z,6.20
2017-09-03T01:40:46.410Z,6.50
2017-09-03T01:45:51.135Z,7.23
2017-09-03T01:50:57.554Z,6.47
2017-09-03T01:56:02.006Z,7.20
2017-09-03T02:01:04.812Z,7.80
2017-09-03T02:06:08.307Z,7.90
2017-09-03T02:11:11.288Z,7.23
2017-09-03T02:16:15.584Z,6.83
2017-09-03T02:21:19.759Z,8.67
2017-09-03T02:26:24.054Z,7.70
2017-09-03T02:31:28.307Z,8.17
2017-09-03T02:36:31.345Z,8.00
2017-09-03T02:41:34.916Z,7.23
2017-09-03T02:46:38.632Z,7.73
2017-09-03T02:51:41.738Z,7.90
2017-09-03T02:56:45.440Z,7.63
2017-09-03T03:01:49.760Z,7.60
2017-09-03T03:06:53.099Z,7.37
2017-09-03T03:11:56.660Z,8.60
2017-09-03T03:16:59.685Z,7.60
2017-09-03T03:22:02.590Z,7.93
2017-09-03T03:27:07.749Z,7.00
2017-09-03T03:32:10.593Z,6.80
2017-09-03T03:37:14.459Z,7.07
2017-09-03T03:42:17.949Z,6.80
2017-09-03T03:47:20.884Z,6.43
2017-09-03T03:52:23.808Z,6.63
2017-09-03T03:57:26.818Z,6.50
2017-09-03T04:07:37.217Z,7.53
2017-09-03T04:12:40.770Z,7.70
2017-09-03T04:17:44.637Z,7.13
2017-09-03T04:22:47.986Z,6.87
2017-09-03T04:27:52.199Z,7.10
2017-09-03T04:32:55.529Z,8.13
2017-09-03T04:37:58.303Z,6.70
2017-09-03T04:43:01.306Z,7.70
2017-09-03T04:48:04.381Z,7.03
2017-09-03T04:53:08.053Z,9.57
2017-09-03T04:58:12.366Z,8.30
2017-09-03T05:08:22.243Z,6.90
2017-09-03T05:13:25.933Z,5.93
2017-09-03T05:18:29.347Z,7.67
2017-09-03T05:23:34.268Z,6.97
2017-09-03T05:28:40.371Z,7.83
2017-09-03T05:33:43.415Z,7.33
2017-09-03T05:38:46.901Z,7.57
2017-09-03T05:43:49.584Z,7.47
2017-09-03T05:48:53.673Z,8.23
2017-09-03T05:53:57.152Z,7.83
2017-09-03T05:59:00.063Z,8.00
2017-09-03T06:04:04.321Z,7.17
2017-09-03T06:09:07.298Z,7.30
2017-09-03T06:14:10.729Z,7.00
2017-09-03T06:19:14.168Z,7.07
2017-09-03T06:24:17.940Z,7.40
2017-09-03T06:29:22.299Z,7.73
2017-09-03T06:34:25.754Z,7.00
2017-09-03T06:39:29.146Z,7.53
2017-09-03T06:44:35.455Z,6.97
2017-09-03T06:49:38.941Z,7.30
2017-09-03T06:54:41.839Z,7.60
2017-09-03T06:59:45.366Z,7.40
2017-09-03T07:09:58.198Z,7.73
2017-09-03T07:15:01.974Z,6.80
2017-09-03T07:20:05.770Z,7.40
2017-09-03T07:25:09.416Z,6.83
2017-09-03T07:30:13.175Z,7.60
2017-09-03T07:35:19.558Z,7.40
2017-09-03T07:40:25.985Z,7.53
2017-09-03T07:45:28.958Z,7.80
2017-09-03T07:50:32.566Z,7.83
2017-09-03T07:55:35.285Z,8.20
2017-09-03T08:00:39.227Z,7.93
2017-09-03T08:05:41.950Z,7.47
2017-09-03T08:10:44.621Z,9.73
2017-09-03T08:15:48.210Z,9.23
2017-09-03T08:20:51.299Z,10.00
2017-09-03T08:25:54.367Z,10.30
2017-09-03T08:30:57.380Z,8.60
2017-09-03T08:36:01.475Z,9.27
2017-09-03T08:41:05.390Z,9.67
2017-09-03T08:46:09.759Z,9.97
2017-09-03T08:51:14.918Z,9.50
2017-09-03T08:56:17.658Z,9.43
2017-09-03T09:01:20.338Z,9.90
2017-09-03T09:06:23.265Z,10.30
2017-09-03T09:11:26.343Z,10.17
2017-09-03T09:16:29.792Z,9.77
2017-09-03T09:21:32.574Z,9.73
2017-09-03T09:26:35.658Z,9.83
2017-09-03T09:31:40.237Z,10.50
2017-09-03T09:36:43.643Z,9.60
2017-09-03T09:41:47.857Z,8.60
2017-09-03T09:46:52.341Z,9.17
2017-09-03T09:51:55.831Z,8.00
2017-09-03T09:56:59.588Z,9.13
2017-09-03T10:02:02.939Z,8.00
2017-09-03T10:07:09.296Z,7.00
2017-09-03T10:12:11.984Z,7.77
2017-09-03T10:17:15.378Z,8.70
2017-09-03T10:22:18.040Z,7.47
2017-09-03T10:27:22.463Z,7.50
2017-09-03T10:32:25.226Z,6.03
2017-09-03T10:37:29.492Z,6.70
2017-09-03T10:47:43.236Z,3.43
2017-09-03T10:52:45.890Z,3.63
2017-09-03T10:57:49.202Z,4.90
2017-09-03T11:02:53.088Z,5.93
2017-09-03T11:07:56.040Z,5.30
2017-09-03T11:13:00.592Z,5.30
2017-09-03T11:18:07.136Z,4.93
2017-09-03T11:23:11.533Z,4.20
2017-09-03T11:28:15.014Z,4.07
2017-09-03T11:33:18.867Z,4.23
2017-09-03T11:38:21.669Z,3.47
2017-09-03T11:43:24.721Z,3.30
2017-09-03T11:48:27.428Z,3.20
2017-09-03T11:53:30.422Z,3.87
2017-09-03T11:58:34.114Z,2.90
2017-09-03T12:03:37.861Z,3.30
2017-09-03T12:08:42.830Z,3.73
2017-09-03T12:13:45.776Z,2.93
2017-09-03T12:18:50.179Z,4.83
2017-09-03T12:23:54.479Z,2.70
2017-09-03T12:28:57.935Z,2.87
2017-09-03T12:34:00.963Z,3.07
2017-09-03T12:39:04.139Z,2.73
2017-09-03T12:44:07.032Z,2.67
2017-09-03T12:49:09.771Z,2.20
2017-09-03T12:54:12.506Z,2.20
2017-09-03T12:59:15.890Z,1.63
2017-09-03T13:04:18.698Z,1.80
2017-09-03T13:09:23.110Z,1.67
2017-09-03T13:14:26.600Z,3.30
2017-09-03T13:19:29.602Z,1.50
2017-09-03T13:24:33.279Z,1.63
2017-09-03T13:29:38.344Z,1.13
2017-09-03T13:34:41.732Z,1.53
2017-09-03T13:39:44.518Z,1.43
2017-09-03T13:44:47.343Z,1.33
2017-09-03T13:54:58.472Z,2.20
2017-09-03T14:00:01.139Z,2.27
2017-09-03T14:05:04.102Z,3.23
2017-09-03T14:10:06.722Z,2.57
2017-09-03T14:15:10.266Z,1.80
2017-09-03T14:20:13.626Z,2.00
2017-09-03T14:25:16.536Z,2.87
2017-09-03T14:30:19.252Z,3.23
2017-09-03T14:35:22.679Z,3.67
2017-09-03T14:40:26.858Z,3.20
2017-09-03T14:45:30.242Z,3.23
2017-09-03T14:50:34.459Z,3.27
2017-09-03T14:55:37.771Z,3.73
2017-09-03T15:00:41.233Z,3.40
2017-09-03T15:05:44.549Z,3.90
2017-09-03T15:10:47.940Z,3.40
2017-09-03T15:15:51.335Z,3.43
2017-09-03T15:20:54.787Z,3.20
2017-09-03T15:25:58.994Z,3.30
2017-09-03T15:31:01.632Z,3.63
2017-09-03T15:36:08.772Z,3.37
2017-09-03T15:41:13.319Z,2.67
2017-09-03T15:46:16.475Z,2.87
2017-09-03T15:51:20.405Z,3.30
2017-09-03T15:56:23.995Z,2.80
2017-09-03T16:01:26.605Z,3.30
2017-09-03T16:06:29.527Z,2.50
2017-09-03T16:11:32.476Z,2.53
2017-09-03T16:16:35.145Z,3.57
2017-09-03T16:21:38.086Z,2.30
2017-09-03T16:26:41.710Z,2.80
2017-09-03T16:31:45.462Z,2.37
2017-09-03T16:36:48.405Z,2.50
2017-09-03T16:41:51.035Z,2.93
2017-09-03T16:46:57.119Z,2.40
2017-09-03T16:51:59.776Z,3.43
2017-09-03T16:57:04.127Z,3.10
2017-09-03T17:02:08.407Z,2.80
2017-09-03T17:07:11.117Z,2.60
2017-09-03T17:12:17.984Z,3.07
2017-09-03T17:17:20.905Z,3.10
2017-09-03T17:22:24.737Z,2.83
2017-09-03T17:27:29.699Z,3.50
2017-09-03T17:32:38.017Z,3.50
2017-09-03T17:37:41.381Z,3.03
2017-09-03T17:48:20.163Z,3.58
2017-09-03T17:53:30.675Z,3.47
2017-09-03T17:58:49.184Z,3.13
2017-09-03T18:04:03.164Z,3.30
2017-09-03T18:14:25.975Z,3.90
2017-09-03T18:19:42.382Z,3.80
2017-09-03T18:24:51.350Z,4.17
2017-09-03T18:30:01.955Z,6.17
2017-09-03T18:46:06.501Z,6.37
2017-09-03T18:51:25.354Z,4.50
2017-09-03T18:56:31.931Z,4.43
2017-09-03T19:01:38.346Z,4.60
2017-09-03T19:06:43.046Z,5.07
2017-09-03T19:27:26.265Z,19.50
2017-09-03T19:32:32.505Z,19.07
2017-09-03T19:37:40.391Z,6.40
2017-09-03T19:42:47.295Z,5.00
2017-09-03T19:47:55.826Z,4.00
2017-09-03T19:53:01.688Z,4.50
2017-09-03T19:58:05.505Z,6.17
2017-09-03T20:03:10.803Z,4.20
2017-09-03T20:08:17.277Z,3.90
2017-09-03T20:13:26.417Z,3.53
2017-09-03T20:18:36.816Z,3.47
2017-09-03T20:23:47.474Z,4.13
2017-09-03T20:28:56.485Z,4.17
2017-09-03T20:34:02.502Z,3.33
2017-09-03T20:39:08.118Z,3.93
2017-09-03T20:44:13.948Z,4.10
2017-09-03T20:49:20.431Z,3.70
2017-09-03T20:54:27.486Z,3.50
2017-09-03T20:59:33.782Z,3.60
2017-09-03T21:04:39.916Z,4.60
2017-09-03T21:10:04.106Z,3.90
2017-09-03T21:15:08.258Z,3.70
2017-09-03T21:20:32.125Z,4.40
2017-09-03T21:25:43.251Z,3.80
2017-09-03T21:30:48.301Z,3.70
2017-09-03T21:35:53.751Z,3.93
2017-09-03T21:40:59.475Z,3.40
2017-09-03T21:46:04.983Z,12.60
2017-09-03T21:51:16.063Z,5.00
2017-09-03T21:56:22.237Z,4.20
2017-09-03T22:01:28.794Z,3.67
2017-09-03T22:06:34.729Z,4.40
2017-09-03T22:11:41.633Z,4.30
2017-09-03T22:16:45.976Z,4.90
2017-09-03T22:37:18.867Z,4.00
2017-09-03T22:42:25.991Z,4.80
2017-09-03T22:47:34.508Z,3.63
2017-09-03T22:52:39.860Z,3.80
2017-09-03T22:57:45.702Z,4.13
2017-09-03T23:02:51.071Z,3.50
2017-09-03T23:07:58.962Z,3.90
2017-09-03T23:13:06.273Z,3.77
2017-09-03T23:18:12.044Z,14.63
2017-09-03T23:23:25.345Z,4.37
2017-09-03T23:28:33.081Z,3.50
2017-09-03T23:33:39.478Z,3.40
2017-09-03T23:38:47.195Z,3.53
2017-09-03T23:43:52.116Z,2.77
2017-09-03T23:48:58.710Z,3.10
2017-09-03T23:54:03.070Z,3.37
